createdAt,value
2018-03-15T00:00:46.819Z,-0.01
2018-03-15T00:01:46.795Z,0.1
2018-03-15T00:02:46.523Z,0.16
2018-03-15T00:03:47.022Z,0.13
2018-03-15T00:04:47.001Z,0.03
2018-03-15T00:05:46.728Z,-0.01
2018-03-15T00:06:46.971Z,0.05
2018-03-15T00:07:46.959Z,-0.07
2018-03-15T00:08:46.954Z,-0.05
2018-03-15T00:09:46.658Z,-0.09
2018-03-15T00:10:46.898Z,-0.04
2018-03-15T00:11:46.880Z,-0.13
2018-03-15T00:12:46.866Z,-0.13
2018-03-15T00:13:46.588Z,-0.22
2018-03-15T00:14:46.573Z,-0.22
2018-03-15T00:15:46.807Z,-0.22
2018-03-15T00:16:46.537Z,-0.25
2018-03-15T00:17:46.516Z,-0.25
2018-03-15T00:18:46.499Z,-0.27
2018-03-15T00:19:46.483Z,-0.27
2018-03-15T00:20:46.721Z,-0.28
2018-03-15T00:21:46.703Z,-0.34
2018-03-15T00:22:46.172Z,-0.28
2018-03-15T00:23:46.409Z,-0.34
2018-03-15T00:24:46.649Z,-0.28
2018-03-15T00:25:46.117Z,-0.31
2018-03-15T00:26:46.613Z,-0.33
2018-03-15T00:27:46.342Z,-0.3
2018-03-15T00:28:46.580Z,-0.23
2018-03-15T00:29:46.558Z,-0.25
2018-03-15T00:30:46.289Z,-0.22
2018-03-15T00:31:46.269Z,-0.16
2018-03-15T00:32:46.509Z,-0.22
2018-03-15T00:33:46.492Z,-0.1
2018-03-15T00:34:46.472Z,-0.18
2018-03-15T00:35:46.455Z,-0.2
2018-03-15T00:36:46.196Z,-0.28
2018-03-15T00:37:46.426Z,-0.25
2018-03-15T00:38:46.408Z,-0.36
2018-03-15T00:39:46.593Z,-0.38
2018-03-15T00:40:46.371Z,-0.4
2018-03-15T00:41:46.354Z,-0.45
2018-03-15T00:42:45.821Z,-0.51
2018-03-15T00:43:46.318Z,-0.56
2018-03-15T00:44:46.298Z,-0.51
2018-03-15T00:45:46.295Z,-0.62
2018-03-15T00:46:46.266Z,-0.56
2018-03-15T00:47:46.335Z,-0.64
2018-03-15T00:48:46.229Z,-0.73
2018-03-15T00:49:46.214Z,-0.67
2018-03-15T00:50:46.197Z,-0.61
2018-03-15T00:51:45.919Z,-0.7
2018-03-15T00:52:46.157Z,-0.82
2018-03-15T00:53:45.625Z,-0.84
2018-03-15T00:54:46.122Z,-0.79
2018-03-15T00:55:46.108Z,-0.82
2018-03-15T00:56:46.091Z,-0.85
2018-03-15T00:57:46.066Z,-0.95
2018-03-15T00:58:46.049Z,-0.87
2018-03-15T00:59:46.029Z,-0.93
2018-03-15T01:00:46.013Z,-0.98
2018-03-15T01:01:45.995Z,-0.95
2018-03-15T01:02:45.985Z,-0.93
2018-03-15T01:03:45.710Z,-1.01
2018-03-15T01:04:45.940Z,-1.03
2018-03-15T01:05:45.921Z,-1.04
2018-03-15T01:06:45.648Z,-1.13
2018-03-15T01:07:45.885Z,-1.1
2018-03-15T01:08:45.609Z,-1.1
2018-03-15T01:09:45.848Z,-1.1
2018-03-15T01:10:45.576Z,-1.24
2018-03-15T01:11:45.556Z,-1.17
2018-03-15T01:12:45.798Z,-1.21
2018-03-15T01:13:45.778Z,-1.24
2018-03-15T01:14:45.758Z,-1.22
2018-03-15T01:15:45.483Z,-1.24
2018-03-15T01:16:45.720Z,-1.27
2018-03-15T01:17:45.710Z,-1.28
2018-03-15T01:18:45.685Z,-1.3
2018-03-15T01:19:45.666Z,-1.31
2018-03-15T01:20:45.649Z,-1.37
2018-03-15T01:21:45.634Z,-1.32
2018-03-15T01:22:45.359Z,-1.34
2018-03-15T01:23:45.604Z,-1.31
2018-03-15T01:24:45.319Z,-1.31
2018-03-15T01:25:45.297Z,-1.34
2018-03-15T01:26:45.538Z,-1.35
2018-03-15T01:27:45.263Z,-1.34
2018-03-15T01:28:45.504Z,-1.37
2018-03-15T01:29:44.967Z,-1.34
2018-03-15T01:30:45.465Z,-1.34
2018-03-15T01:31:45.455Z,-1.37
2018-03-15T01:32:45.433Z,-1.37
2018-03-15T01:33:45.158Z,-1.35
2018-03-15T01:34:45.389Z,-1.38
2018-03-15T01:35:45.115Z,-1.38
2018-03-15T01:36:45.195Z,-1.38
2018-03-15T01:37:45.338Z,-1.31
2018-03-15T01:38:45.314Z,-1.35
2018-03-15T01:39:45.049Z,-1.3
2018-03-15T01:40:45.024Z,-1.34
2018-03-15T01:41:45.005Z,-1.4
2018-03-15T01:42:44.988Z,-1.38
2018-03-15T01:43:45.230Z,-1.35
2018-03-15T01:44:45.211Z,-1.43
2018-03-15T01:45:45.185Z,-1.35
2018-03-15T01:46:45.167Z,-1.38
2018-03-15T01:47:45.188Z,-1.34
2018-03-15T01:48:44.876Z,-1.38
2018-03-15T01:49:45.112Z,-1.45
2018-03-15T01:50:45.093Z,-1.37
2018-03-15T01:51:45.083Z,-1.43
2018-03-15T01:52:44.801Z,-1.43
2018-03-15T01:53:45.043Z,-1.45
2018-03-15T01:54:44.764Z,-1.42
2018-03-15T01:55:45.003Z,-1.34
2018-03-15T01:56:44.979Z,-1.42
2018-03-15T01:57:44.966Z,-1.35
2018-03-15T01:58:44.960Z,-1.35
2018-03-15T01:59:44.934Z,-1.32
2018-03-15T02:00:44.909Z,-1.27
2018-03-15T02:01:44.631Z,-1.21
2018-03-15T02:02:44.873Z,-1.1
2018-03-15T02:03:44.595Z,-1.13
2018-03-15T02:04:44.834Z,-1.1
2018-03-15T02:05:44.812Z,-0.95
2018-03-15T02:06:44.538Z,-0.96
2018-03-15T02:07:44.522Z,-0.89
2018-03-15T02:08:44.763Z,-0.89
2018-03-15T02:09:44.483Z,-0.87
2018-03-15T02:10:44.206Z,-0.95
2018-03-15T02:11:44.447Z,-0.84
2018-03-15T02:12:44.432Z,-0.85
2018-03-15T02:13:44.669Z,-0.89
2018-03-15T02:14:44.390Z,-0.92
2018-03-15T02:15:44.660Z,-0.91
2018-03-15T02:16:44.661Z,-0.93
2018-03-15T02:17:44.617Z,-0.85
2018-03-15T02:18:44.576Z,-0.85
2018-03-15T02:19:44.317Z,-0.92
2018-03-15T02:23:07.665Z,-0.79
2018-03-15T02:24:07.648Z,-0.82
2018-03-15T02:25:07.370Z,-0.72
2018-03-15T02:26:07.350Z,-0.67
2018-03-15T02:27:07.332Z,-0.67
2018-03-15T02:28:07.316Z,-0.62
2018-03-15T02:29:07.555Z,-0.73
2018-03-15T02:30:08.475Z,-0.61
2018-03-15T02:31:07.002Z,-0.62
2018-03-15T02:32:07.239Z,-0.55
2018-03-15T02:33:07.233Z,-0.56
2018-03-15T02:34:07.210Z,-0.51
2018-03-15T02:35:07.186Z,-0.69
2018-03-15T02:36:07.433Z,-0.62
2018-03-15T02:37:07.419Z,-0.74
2018-03-15T02:38:07.397Z,-0.67
2018-03-15T02:39:07.382Z,-0.76
2018-03-15T02:40:06.833Z,-0.8
2018-03-15T02:41:07.074Z,-0.79
2018-03-15T02:42:07.061Z,-0.82
2018-03-15T02:43:07.045Z,-0.85
2018-03-15T02:44:07.280Z,-0.98
2018-03-15T02:45:07.005Z,-0.95
2018-03-15T02:46:07.265Z,-0.96
2018-03-15T02:47:06.974Z,-0.93
2018-03-15T02:48:07.206Z,-0.95
2018-03-15T02:49:06.675Z,-0.93
2018-03-15T02:50:07.180Z,-0.95
2018-03-15T02:51:07.149Z,-0.96
2018-03-15T02:52:07.147Z,-0.95
2018-03-15T02:53:07.148Z,-0.91
2018-03-15T02:54:06.577Z,-0.91
2018-03-15T02:55:06.822Z,-0.82
2018-03-15T02:56:06.800Z,-0.79
2018-03-15T02:57:06.526Z,-0.64
2018-03-15T02:58:07.016Z,-0.64
2018-03-15T02:59:06.489Z,-0.69
2018-03-15T03:00:06.988Z,-0.69
2018-03-15T03:01:06.970Z,-0.72
2018-03-15T03:02:06.704Z,-0.64
2018-03-15T03:03:06.745Z,-0.67
2018-03-15T03:04:06.917Z,-0.72
2018-03-15T03:05:06.891Z,-0.82
2018-03-15T03:06:06.620Z,-0.84
2018-03-15T03:07:06.597Z,-0.77
2018-03-15T03:08:06.864Z,-0.82
2018-03-15T03:09:06.827Z,-0.8
2018-03-15T03:10:06.544Z,-0.8
2018-03-15T03:11:06.778Z,-0.85
2018-03-15T03:12:06.510Z,-0.8
2018-03-15T03:13:06.744Z,-0.89
2018-03-15T03:14:06.463Z,-0.91
2018-03-15T03:15:06.708Z,-0.91
2018-03-15T03:16:06.434Z,-0.89
2018-03-15T03:17:06.153Z,-0.99
2018-03-15T03:18:06.653Z,-0.95
2018-03-15T03:19:06.643Z,-0.99
2018-03-15T03:20:06.647Z,-1.03
2018-03-15T03:21:06.335Z,-0.93
2018-03-15T03:22:06.319Z,-1.09
2018-03-15T03:23:06.304Z,-1.01
2018-03-15T03:24:06.541Z,-1.1
2018-03-15T03:25:06.004Z,-1.14
2018-03-15T03:26:06.516Z,-1.21
2018-03-15T03:27:05.970Z,-1.21
2018-03-15T03:28:05.953Z,-1.24
2018-03-15T03:29:06.190Z,-1.24
2018-03-15T03:30:05.917Z,-1.28
2018-03-15T03:31:06.420Z,-1.27
2018-03-15T03:32:06.136Z,-1.21
2018-03-15T03:33:06.115Z,-1.22
2018-03-15T03:34:06.357Z,-1.28
2018-03-15T03:35:06.080Z,-1.3
2018-03-15T03:36:06.063Z,-1.32
2018-03-15T03:37:06.045Z,-1.34
2018-03-15T03:38:06.282Z,-1.37
2018-03-15T03:39:06.005Z,-1.35
2018-03-15T03:40:06.247Z,-1.42
2018-03-15T03:41:05.973Z,-1.3
2018-03-15T03:42:05.948Z,-1.38
2018-03-15T03:43:06.190Z,-1.34
2018-03-15T03:44:06.182Z,-1.37
2018-03-15T03:45:06.162Z,-1.35
2018-03-15T03:46:05.876Z,-1.37
2018-03-15T03:47:05.860Z,-1.38
2018-03-15T03:48:06.101Z,-1.42
2018-03-15T03:49:05.568Z,-1.43
2018-03-15T03:50:06.066Z,-1.53
2018-03-15T03:51:05.784Z,-1.48
2018-03-15T03:52:05.508Z,-1.45
2018-03-15T03:53:05.487Z,-1.45
2018-03-15T03:54:05.989Z,-1.53
2018-03-15T03:55:05.715Z,-1.5
2018-03-15T03:56:05.951Z,-1.49
2018-03-15T03:57:05.677Z,-1.66
2018-03-15T03:58:05.656Z,-1.66
2018-03-15T03:59:05.890Z,-1.63
2018-03-15T04:00:05.360Z,-1.61
2018-03-15T04:01:05.862Z,-1.66
2018-03-15T04:02:05.575Z,-1.7
2018-03-15T04:03:05.558Z,-1.73
2018-03-15T04:04:05.537Z,-1.71
2018-03-15T04:05:05.783Z,-1.71
2018-03-15T04:06:05.772Z,-1.76
2018-03-15T04:07:05.491Z,-1.81
2018-03-15T04:08:05.207Z,-1.82
2018-03-15T04:09:05.703Z,-1.82
2018-03-15T04:10:05.691Z,-1.86
2018-03-15T04:11:05.412Z,-1.85
2018-03-15T04:12:05.392Z,-1.81
2018-03-15T04:13:05.632Z,-1.85
2018-03-15T04:14:05.355Z,-1.81
2018-03-15T04:15:05.335Z,-1.91
2018-03-15T04:16:05.577Z,-1.85
2018-03-15T04:17:05.298Z,-1.89
2018-03-15T04:18:05.021Z,-1.86
2018-03-15T04:19:05.518Z,-1.84
2018-03-15T04:20:05.501Z,-1.91
2018-03-15T04:21:04.964Z,-1.82
2018-03-15T04:22:05.460Z,-1.81
2018-03-15T04:23:05.183Z,-1.86
2018-03-15T04:24:04.910Z,-1.94
2018-03-15T04:25:05.184Z,-1.85
2018-03-15T04:26:05.135Z,-1.79
2018-03-15T04:27:05.371Z,-1.84
2018-03-15T04:28:05.091Z,-1.81
2018-03-15T04:29:05.334Z,-1.79
2018-03-15T04:30:05.204Z,-1.79
2018-03-15T04:31:05.037Z,-1.82
2018-03-15T04:32:05.017Z,-1.84
2018-03-15T04:33:05.254Z,-1.86
2018-03-15T04:34:05.236Z,-1.88
2018-03-15T04:35:05.217Z,-1.89
2018-03-15T04:36:04.939Z,-1.88
2018-03-15T04:37:04.918Z,-1.88
2018-03-15T04:38:05.157Z,-1.85
2018-03-15T04:39:04.883Z,-1.94
2018-03-15T04:40:04.865Z,-1.92
2018-03-15T04:41:05.106Z,-1.85
2018-03-15T04:42:05.085Z,-1.88
2018-03-15T04:43:04.807Z,-1.86
2018-03-15T04:44:05.043Z,-1.85
2018-03-15T04:45:05.027Z,-1.81
2018-03-15T04:46:05.007Z,-1.79
2018-03-15T04:47:04.737Z,-1.82
2018-03-15T04:48:04.710Z,-1.76
2018-03-15T04:49:04.956Z,-1.86
2018-03-15T04:50:04.673Z,-1.86
2018-03-15T04:51:04.916Z,-1.88
2018-03-15T04:52:04.632Z,-1.96
2018-03-15T04:53:04.878Z,-2.02
2018-03-15T04:54:04.597Z,-1.94
2018-03-15T04:55:04.836Z,-1.92
2018-03-15T04:56:04.817Z,-1.86
2018-03-15T04:57:04.542Z,-1.96
2018-03-15T04:58:04.788Z,-1.94
2018-03-15T04:59:04.500Z,-1.99
2018-03-15T05:00:04.740Z,-1.84
2018-03-15T05:01:04.466Z,-1.96
2018-03-15T05:02:04.442Z,-1.99
2018-03-15T05:03:04.426Z,-2.02
2018-03-15T05:04:04.404Z,-1.96
2018-03-15T05:05:04.659Z,-1.86
2018-03-15T05:06:04.369Z,-1.79
2018-03-15T05:07:04.348Z,-1.85
2018-03-15T05:08:04.590Z,-1.82
2018-03-15T05:09:04.314Z,-1.86
2018-03-15T05:10:04.558Z,-1.79
2018-03-15T05:11:04.629Z,-1.91
2018-03-15T05:12:04.256Z,-1.96
2018-03-15T05:13:04.233Z,-2.02
2018-03-15T05:14:04.476Z,-2
2018-03-15T05:15:04.196Z,-1.94
2018-03-15T05:16:03.920Z,-1.99
2018-03-15T05:17:03.903Z,-1.96
2018-03-15T05:18:04.398Z,-2.02
2018-03-15T05:19:04.122Z,-1.94
2018-03-15T05:20:04.108Z,-2.02
2018-03-15T05:21:03.824Z,-1.97
2018-03-15T05:22:04.066Z,-2.06
2018-03-15T05:23:04.046Z,-2
2018-03-15T05:24:04.288Z,-2
2018-03-15T05:25:04.002Z,-1.99
2018-03-15T05:26:03.986Z,-2.05
2018-03-15T05:27:03.967Z,-2.09
2018-03-15T05:28:04.234Z,-2.12
2018-03-15T05:29:04.185Z,-2
2018-03-15T05:30:03.659Z,-2.05
2018-03-15T05:31:03.890Z,-2.03
2018-03-15T05:32:04.138Z,-2.07
2018-03-15T05:33:04.152Z,-2.06
2018-03-15T05:34:04.114Z,-2.12
2018-03-15T05:35:03.816Z,-2.05
2018-03-15T05:36:03.796Z,-2.07
2018-03-15T05:37:03.785Z,-2.15
2018-03-15T05:38:03.761Z,-2.1
2018-03-15T05:39:03.742Z,-2.09
2018-03-15T05:40:03.985Z,-2.17
2018-03-15T05:41:03.966Z,-2.09
2018-03-15T05:42:03.943Z,-2.24
2018-03-15T05:43:03.670Z,-2.1
2018-03-15T05:44:03.897Z,-2.14
2018-03-15T05:45:03.883Z,-2.12
2018-03-15T05:46:03.872Z,-1.99
2018-03-15T05:47:03.586Z,-2.06
2018-03-15T05:48:03.837Z,-2.09
2018-03-15T05:49:03.808Z,-2.1
2018-03-15T05:50:03.784Z,-2.12
2018-03-15T05:51:03.258Z,-2.12
2018-03-15T05:52:03.798Z,-2.06
2018-03-15T05:53:03.726Z,-2.07
2018-03-15T05:54:03.452Z,-2.06
2018-03-15T05:55:03.694Z,-2.12
2018-03-15T05:56:03.156Z,-2.12
2018-03-15T05:57:03.395Z,-2.12
2018-03-15T05:58:03.633Z,-2.17
2018-03-15T05:59:03.613Z,-2.06
2018-03-15T06:00:03.601Z,-2.12
2018-03-15T06:01:03.314Z,-2.05
2018-03-15T06:02:03.301Z,-2.09
2018-03-15T06:03:03.540Z,-1.99
2018-03-15T06:04:03.260Z,-2
2018-03-15T06:05:03.505Z,-2.06
2018-03-15T06:06:03.477Z,-1.99
2018-03-15T06:07:03.201Z,-1.96
2018-03-15T06:08:03.186Z,-2.02
2018-03-15T06:09:03.164Z,-2.02
2018-03-15T06:10:03.147Z,-1.94
2018-03-15T06:11:02.869Z,-1.92
2018-03-15T06:12:03.360Z,-1.94
2018-03-15T06:13:03.343Z,-1.92
2018-03-15T06:14:03.335Z,-1.88
2018-03-15T06:15:03.052Z,-1.88
2018-03-15T06:16:03.041Z,-1.86
2018-03-15T06:17:03.275Z,-1.91
2018-03-15T06:18:03.003Z,-1.85
2018-03-15T06:19:03.236Z,-1.85
2018-03-15T06:20:03.217Z,-1.82
2018-03-15T06:21:03.190Z,-1.86
2018-03-15T06:22:03.174Z,-1.84
2018-03-15T06:23:03.153Z,-1.88
2018-03-15T06:24:02.885Z,-1.68
2018-03-15T06:25:03.117Z,-1.73
2018-03-15T06:26:03.096Z,-1.7
2018-03-15T06:27:02.821Z,-1.68
2018-03-15T06:28:02.804Z,-1.73
2018-03-15T06:29:03.048Z,-1.63
2018-03-15T06:30:02.764Z,-1.61
2018-03-15T06:31:03.008Z,-1.6
2018-03-15T06:32:02.997Z,-1.58
2018-03-15T06:33:02.705Z,-1.5
2018-03-15T06:34:02.733Z,-1.52
2018-03-15T06:35:02.668Z,-1.42
2018-03-15T06:36:02.917Z,-1.16
2018-03-15T06:37:02.655Z,-0.85
2018-03-15T06:38:02.623Z,-0.59
2018-03-15T06:39:02.334Z,-0.36
2018-03-15T06:40:02.834Z,-0.2
2018-03-15T06:41:02.556Z,0.02
2018-03-15T06:42:02.603Z,0.03
2018-03-15T06:43:02.521Z,0.05
2018-03-15T06:44:02.242Z,0.14
2018-03-15T06:45:02.740Z,0.1
2018-03-15T06:46:02.466Z,0.05
2018-03-15T06:47:02.715Z,0.03
2018-03-15T06:48:02.689Z,0.03
2018-03-15T06:49:02.664Z,-0.02
2018-03-15T06:50:02.390Z,-0.01
2018-03-15T06:51:02.631Z,-0.13
2018-03-15T06:52:02.096Z,-0.1
2018-03-15T06:53:02.336Z,-0.19
2018-03-15T06:54:02.578Z,-0.18
2018-03-15T06:55:02.559Z,-0.22
2018-03-15T06:56:02.021Z,-0.25
2018-03-15T06:57:02.522Z,-0.25
2018-03-15T06:58:01.985Z,-0.34
2018-03-15T06:59:02.504Z,-0.27
2018-03-15T07:00:02.208Z,-0.22
2018-03-15T07:01:02.457Z,-0.3
2018-03-15T07:02:02.171Z,-0.28
2018-03-15T07:03:02.150Z,-0.33
2018-03-15T07:04:02.132Z,-0.28
2018-03-15T07:05:01.859Z,-0.2
2018-03-15T07:06:02.357Z,-0.3
2018-03-15T07:07:02.338Z,-0.31
2018-03-15T07:08:02.060Z,-0.22
2018-03-15T07:09:02.302Z,-0.16
2018-03-15T07:10:02.021Z,-0.1
2018-03-15T07:11:01.753Z,-0.12
2018-03-15T07:12:02.248Z,-0.13
2018-03-15T07:13:01.978Z,-0.15
2018-03-15T07:14:02.207Z,-0.04
2018-03-15T07:15:02.189Z,-0.12
2018-03-15T07:16:02.177Z,-0.1
2018-03-15T07:17:01.901Z,-0.01
2018-03-15T07:18:01.878Z,-0.04
2018-03-15T07:19:02.123Z,0.05
2018-03-15T07:20:01.840Z,-0.01
2018-03-15T07:21:02.082Z,0.05
2018-03-15T07:22:01.807Z,0.09
2018-03-15T07:23:02.053Z,0.08
2018-03-15T07:24:01.773Z,0.03
2018-03-15T07:25:01.761Z,0.03
2018-03-15T07:26:01.999Z,0.14
2018-03-15T07:27:01.979Z,0.13
2018-03-15T07:28:01.958Z,0.1
2018-03-15T07:29:01.933Z,0.09
2018-03-15T07:30:01.919Z,0.16
2018-03-15T07:31:01.642Z,0.19
2018-03-15T07:32:01.649Z,0.17
2018-03-15T07:33:01.350Z,0.19
2018-03-15T07:34:01.845Z,0.23
2018-03-15T07:35:01.311Z,0.38
2018-03-15T07:36:01.808Z,0.42
2018-03-15T07:37:01.792Z,0.35
2018-03-15T07:38:01.264Z,0.48
2018-03-15T07:39:01.244Z,0.52
2018-03-15T07:40:01.740Z,0.5
2018-03-15T07:41:01.460Z,0.52
2018-03-15T07:42:01.706Z,0.64
2018-03-15T07:43:01.690Z,0.76
2018-03-15T07:44:01.672Z,0.81
2018-03-15T07:45:01.652Z,0.85
2018-03-15T07:46:01.635Z,0.93
2018-03-15T07:47:01.102Z,1.02
2018-03-15T07:48:01.597Z,1
2018-03-15T07:49:01.323Z,1.11
2018-03-15T07:50:01.046Z,1.18
2018-03-15T07:51:01.557Z,1.18
2018-03-15T07:52:01.536Z,1.2
2018-03-15T07:53:01.256Z,1.24
2018-03-15T07:54:01.495Z,1.33
2018-03-15T07:55:01.480Z,1.46
2018-03-15T07:56:01.259Z,1.5
2018-03-15T07:57:01.444Z,1.47
2018-03-15T07:58:01.170Z,1.56
2018-03-15T07:59:01.199Z,1.65
2018-03-15T08:00:01.131Z,1.58
2018-03-15T08:01:01.374Z,1.75
2018-03-15T08:02:01.430Z,1.75
2018-03-15T08:03:01.086Z,1.89
2018-03-15T08:04:00.809Z,1.86
2018-03-15T08:05:00.793Z,1.92
2018-03-15T08:06:01.040Z,2.06
2018-03-15T08:07:01.019Z,2.02
2018-03-15T08:08:01.263Z,2.15
2018-03-15T08:09:01.235Z,2.29
2018-03-15T08:10:01.229Z,2.38
2018-03-15T08:11:01.202Z,2.47
2018-03-15T08:12:00.936Z,2.51
2018-03-15T08:13:01.174Z,2.6
2018-03-15T08:14:01.155Z,2.59
2018-03-15T08:15:00.885Z,2.8
2018-03-15T08:16:01.126Z,2.83
2018-03-15T08:17:01.112Z,2.91
2018-03-15T08:18:01.087Z,2.96
2018-03-15T08:19:00.818Z,3.02
2018-03-15T08:20:01.064Z,3.14
2018-03-15T08:21:00.829Z,3.26
2018-03-15T08:22:00.510Z,3.26
2018-03-15T08:23:01.012Z,3.35
2018-03-15T08:24:01.000Z,3.48
2018-03-15T08:25:00.980Z,3.37
2018-03-15T08:26:00.704Z,3.57
2018-03-15T08:27:00.687Z,3.53
2018-03-15T08:28:00.931Z,3.61
2018-03-15T08:29:00.914Z,3.71
2018-03-15T08:30:01.015Z,3.81
2018-03-15T08:31:00.887Z,3.85
2018-03-15T08:32:00.868Z,3.85
2018-03-15T08:33:00.592Z,3.81
2018-03-15T08:34:00.582Z,3.85
2018-03-15T08:35:00.561Z,3.82
2018-03-15T08:36:00.550Z,3.81
2018-03-15T08:37:00.539Z,3.79
2018-03-15T08:38:00.780Z,3.84
2018-03-15T08:39:00.240Z,3.9
2018-03-15T08:40:00.743Z,3.93
2018-03-15T08:41:00.470Z,3.93
2018-03-15T08:42:00.715Z,4.1
2018-03-15T08:43:00.181Z,4.21
2018-03-15T08:44:00.677Z,4.21
2018-03-15T08:45:00.150Z,4.21
2018-03-15T08:46:00.404Z,4.22
2018-03-15T08:47:00.632Z,4.2
2018-03-15T08:48:00.621Z,4.22
2018-03-15T08:49:00.605Z,4.35
2018-03-15T08:50:00.327Z,4.28
2018-03-15T08:51:00.061Z,4.35
2018-03-15T08:52:00.299Z,4.33
2018-03-15T08:53:00.285Z,4.42
2018-03-15T08:54:00.271Z,4.48
2018-03-15T08:55:00.515Z,4.53
2018-03-15T08:56:00.239Z,4.53
2018-03-15T08:57:00.619Z,4.51
2018-03-15T08:58:00.468Z,4.5
2018-03-15T08:59:00.455Z,4.48
2018-03-15T09:00:00.435Z,4.51
2018-03-15T09:01:00.165Z,4.46
2018-03-15T09:02:00.154Z,4.53
2018-03-15T09:03:00.432Z,4.51
2018-03-15T09:04:00.120Z,4.58
2018-03-15T09:05:00.138Z,4.57
2018-03-15T09:06:00.254Z,4.64
2018-03-15T09:07:00.151Z,4.69
2018-03-15T09:08:00.240Z,4.66
2018-03-15T09:09:00.056Z,4.69
2018-03-15T09:10:00.296Z,4.74
2018-03-15T09:11:00.307Z,4.83
2018-03-15T09:11:59.747Z,4.88
2018-03-15T09:13:00.244Z,4.92
2018-03-15T09:13:59.977Z,5
2018-03-15T09:14:59.965Z,5.15
2018-03-15T09:16:00.205Z,5.18
2018-03-15T09:17:00.285Z,5.18
2018-03-15T09:18:00.174Z,5.3
2018-03-15T09:19:00.242Z,5.2
2018-03-15T09:19:59.889Z,5.18
2018-03-15T09:20:59.874Z,5.36
2018-03-15T09:22:00.116Z,5.39
2018-03-15T09:23:00.104Z,5.37
2018-03-15T09:24:00.088Z,5.41
2018-03-15T09:24:59.813Z,5.52
2018-03-15T09:25:59.800Z,5.62
2018-03-15T09:26:59.796Z,5.66
2018-03-15T09:28:00.041Z,5.75
2018-03-15T09:28:59.835Z,5.82
2018-03-15T09:30:00.033Z,5.95
2018-03-15T09:31:00.041Z,5.92
2018-03-15T09:31:59.459Z,5.88
2018-03-15T09:32:59.714Z,5.95
2018-03-15T09:33:59.697Z,6.07
2018-03-15T09:35:01.511Z,6.06
2018-03-15T09:35:59.949Z,5.99
2018-03-15T09:36:59.654Z,5.96
2018-03-15T09:37:59.929Z,5.98
2018-03-15T09:38:59.929Z,6.03
2018-03-15T09:39:59.632Z,6.24
2018-03-15T09:40:59.894Z,6.2
2018-03-15T09:41:59.662Z,6.14
2018-03-15T09:43:00.587Z,6.06
2018-03-15T09:43:59.292Z,6.15
2018-03-15T09:44:59.552Z,6.15
2018-03-15T09:45:59.268Z,6.24
2018-03-15T09:46:59.540Z,6.26
2018-03-15T09:47:59.515Z,6.28
2018-03-15T09:48:59.780Z,6.4
2018-03-15T09:50:00.773Z,6.52
2018-03-15T09:50:59.464Z,6.54
2018-03-15T09:51:59.452Z,6.54
2018-03-15T09:52:59.460Z,6.47
2018-03-15T09:53:59.779Z,6.26
2018-03-15T09:54:59.707Z,6.25
2018-03-15T09:55:59.395Z,6.21
2018-03-15T09:56:59.671Z,6.15
2018-03-15T09:58:00.310Z,6.09
2018-03-15T09:58:59.651Z,6.05
2018-03-15T09:59:59.352Z,6.24
2018-03-15T10:00:59.598Z,6.34
2018-03-15T10:01:59.317Z,6.37
2018-03-15T10:02:59.574Z,6.43
2018-03-15T10:03:59.572Z,6.52
2018-03-15T10:05:00.544Z,6.51
2018-03-15T10:05:59.600Z,6.54
2018-03-15T10:06:59.527Z,6.49
2018-03-15T10:07:59.260Z,6.42
2018-03-15T10:08:59.266Z,6.42
2018-03-15T10:09:59.210Z,6.51
2018-03-15T10:10:59.198Z,6.49
2018-03-15T10:11:59.186Z,6.49
2018-03-15T10:12:59.173Z,6.44
2018-03-15T10:13:58.888Z,6.47
2018-03-15T10:14:59.417Z,6.61
2018-03-15T10:15:59.153Z,6.6
2018-03-15T10:16:59.411Z,6.72
2018-03-15T10:17:59.410Z,6.64
2018-03-15T10:18:59.375Z,6.67
2018-03-15T10:20:01.083Z,6.76
2018-03-15T10:20:59.357Z,6.79
2018-03-15T10:21:59.071Z,6.9
2018-03-15T10:22:59.066Z,6.9
2018-03-15T10:23:59.314Z,7
2018-03-15T10:24:59.305Z,7.01
2018-03-15T10:25:59.003Z,7.03
2018-03-15T10:27:00.064Z,6.95
2018-03-15T10:27:59.251Z,6.94
2018-03-15T10:28:58.961Z,6.83
2018-03-15T10:29:59.430Z,6.88
2018-03-15T10:30:59.061Z,6.83
2018-03-15T10:31:58.931Z,6.82
2018-03-15T10:32:58.923Z,6.8
2018-03-15T10:33:58.626Z,6.76
2018-03-15T10:35:00.088Z,6.83
2018-03-15T10:35:59.137Z,6.8
2018-03-15T10:36:59.154Z,6.83
2018-03-15T10:37:59.118Z,6.8
2018-03-15T10:38:59.111Z,6.8
2018-03-15T10:39:59.094Z,6.76
2018-03-15T10:40:59.090Z,6.91
2018-03-15T10:41:59.070Z,6.95
2018-03-15T10:42:58.775Z,7.05
2018-03-15T10:43:58.772Z,7.13
2018-03-15T10:44:58.770Z,7.08
2018-03-15T10:45:59.069Z,6.97
2018-03-15T10:46:59.046Z,6.9
2018-03-15T10:47:59.125Z,7
2018-03-15T10:48:58.988Z,6.95
2018-03-15T10:49:59.434Z,7.03
2018-03-15T10:50:58.681Z,7.15
2018-03-15T10:51:58.660Z,7.12
2018-03-15T10:52:58.915Z,7.08
2018-03-15T10:53:58.912Z,7.05
2018-03-15T10:54:58.623Z,7.11
2018-03-15T10:55:58.608Z,7.01
2018-03-15T10:56:58.896Z,7.21
2018-03-15T10:58:00.492Z,7.22
2018-03-15T10:58:58.585Z,7.27
2018-03-15T10:59:59.060Z,7.33
2018-03-15T11:00:58.539Z,7.3
2018-03-15T11:01:58.546Z,7.26
2018-03-15T11:02:58.520Z,7.27
2018-03-15T11:03:58.785Z,7.34
2018-03-15T11:04:58.973Z,7.41
2018-03-15T11:05:58.513Z,7.41
2018-03-15T11:06:58.787Z,7.45
2018-03-15T11:07:58.746Z,7.39
2018-03-15T11:08:58.761Z,7.48
2018-03-15T11:09:58.456Z,7.49
2018-03-15T11:10:58.417Z,7.55
2018-03-15T11:11:58.707Z,7.49
2018-03-15T11:12:59.297Z,7.51
2018-03-15T11:13:58.378Z,7.4
2018-03-15T11:14:58.645Z,7.45
2018-03-15T11:15:58.630Z,7.54
2018-03-15T11:16:58.348Z,7.55
2018-03-15T11:17:58.339Z,7.59
2018-03-15T11:18:58.599Z,7.74
2018-03-15T11:19:58.310Z,7.75
2018-03-15T11:21:00.066Z,7.64
2018-03-15T11:21:58.281Z,7.48
2018-03-15T11:22:58.534Z,7.48
2018-03-15T11:23:58.986Z,7.44
2018-03-15T11:24:58.509Z,7.51
2018-03-15T11:25:58.237Z,7.41
2018-03-15T11:26:58.224Z,7.48
2018-03-15T11:27:58.249Z,7.48
2018-03-15T11:28:59.931Z,7.41
2018-03-15T11:29:58.180Z,7.55
2018-03-15T11:30:58.467Z,7.67
2018-03-15T11:31:58.199Z,7.58
2018-03-15T11:32:58.427Z,7.74
2018-03-15T11:33:58.148Z,7.82
2018-03-15T11:34:58.124Z,7.8
2018-03-15T11:35:58.408Z,7.77
2018-03-15T11:36:59.327Z,7.95
2018-03-15T11:37:58.390Z,8.03
2018-03-15T11:38:57.805Z,7.96
2018-03-15T11:39:58.377Z,7.93
2018-03-15T11:40:58.052Z,8.1
2018-03-15T11:41:58.054Z,8.07
2018-03-15T11:42:58.359Z,8.14
2018-03-15T11:43:59.034Z,8.04
2018-03-15T11:44:57.999Z,7.96
2018-03-15T11:45:58.003Z,7.89
2018-03-15T11:46:58.008Z,7.86
2018-03-15T11:47:57.690Z,7.86
2018-03-15T11:48:57.993Z,7.88
2018-03-15T11:49:58.213Z,7.95
2018-03-15T11:50:57.948Z,7.83
2018-03-15T11:51:59.786Z,7.88
2018-03-15T11:52:58.185Z,7.82
2018-03-15T11:53:57.899Z,7.77
2018-03-15T11:54:57.899Z,7.75
2018-03-15T11:55:58.138Z,7.77
2018-03-15T11:56:57.871Z,7.78
2018-03-15T11:57:58.109Z,7.8
2018-03-15T11:58:58.091Z,7.71
2018-03-15T11:59:59.071Z,7.85
2018-03-15T12:00:58.086Z,7.82
2018-03-15T12:01:57.813Z,7.82
2018-03-15T12:02:57.514Z,7.73
2018-03-15T12:03:58.069Z,7.82
2018-03-15T12:04:58.065Z,7.85
2018-03-15T12:05:57.758Z,7.95
2018-03-15T12:06:58.436Z,7.85
2018-03-15T12:07:58.029Z,8.03
2018-03-15T12:08:57.707Z,7.99
2018-03-15T12:09:57.985Z,7.89
2018-03-15T12:10:57.680Z,7.88
2018-03-15T12:11:57.672Z,7.93
2018-03-15T12:12:57.734Z,7.83
2018-03-15T12:13:57.650Z,7.85
2018-03-15T12:14:58.618Z,7.78
2018-03-15T12:15:57.624Z,7.8
2018-03-15T12:16:57.611Z,7.75
2018-03-15T12:17:57.868Z,7.78
2018-03-15T12:18:57.580Z,7.73
2018-03-15T12:19:57.570Z,7.78
2018-03-15T12:20:57.811Z,7.86
2018-03-15T12:21:57.547Z,7.91
2018-03-15T12:22:57.791Z,7.98
2018-03-15T12:23:57.521Z,8.03
2018-03-15T12:24:57.508Z,8.1
2018-03-15T12:25:57.501Z,8.14
2018-03-15T12:26:57.756Z,8.13
2018-03-15T12:27:57.734Z,8.09
2018-03-15T12:28:57.728Z,8.17
2018-03-15T12:29:57.714Z,8.1
2018-03-15T12:30:57.702Z,8.19
2018-03-15T12:31:57.430Z,8.13
2018-03-15T12:32:57.680Z,8.22
2018-03-15T12:33:57.677Z,8.22
2018-03-15T12:34:57.393Z,8.36
2018-03-15T12:35:57.644Z,8.47
2018-03-15T12:36:57.637Z,8.52
2018-03-15T12:37:57.625Z,8.64
2018-03-15T12:38:57.352Z,8.77
2018-03-15T12:39:57.343Z,8.76
2018-03-15T12:40:57.329Z,8.76
2018-03-15T12:41:57.333Z,8.72
2018-03-15T12:42:57.307Z,8.68
2018-03-15T12:43:57.335Z,8.67
2018-03-15T12:44:57.543Z,8.64
2018-03-15T12:45:57.537Z,8.76
2018-03-15T12:46:57.004Z,8.82
2018-03-15T12:47:57.254Z,8.82
2018-03-15T12:48:57.504Z,8.9
2018-03-15T12:49:56.974Z,8.86
2018-03-15T12:50:57.219Z,8.83
2018-03-15T12:51:57.471Z,8.89
2018-03-15T12:52:57.198Z,8.94
2018-03-15T12:53:57.444Z,8.9
2018-03-15T12:54:57.175Z,8.86
2018-03-15T12:55:57.164Z,8.87
2018-03-15T12:56:57.410Z,8.95
2018-03-15T12:57:57.143Z,8.86
2018-03-15T12:58:57.129Z,8.89
2018-03-15T12:59:57.121Z,8.95
2018-03-15T13:00:56.852Z,8.94
2018-03-15T13:01:57.487Z,8.82
2018-03-15T13:02:57.351Z,8.76
2018-03-15T13:03:56.822Z,8.86
2018-03-15T13:04:56.810Z,8.8
2018-03-15T13:05:57.316Z,8.82
2018-03-15T13:06:57.302Z,8.86
2018-03-15T13:07:57.298Z,8.85
2018-03-15T13:08:57.297Z,8.85
2018-03-15T13:09:57.014Z,8.79